Terminal Aerodrome Forecast
Issued by NWS

Home | Current Version | Previous Version | Text Only | Print | Product List | Glossary On
Versions: 1 2 3 4 5 6 7 8 9 10 11 12 13 14 15 16 17 18 19 20 21
000
FTUS43 KDLH 241733
TAFHYR
TAF
KHYR 241733Z 2418/2518 29008KT P6SM VCSH SCT030 BKN050
      TEMPO 2419/2423 6SM -SHRA BKN035 OVC060
     FM250000 30005KT P6SM BKN060
     FM250800 VRB03KT P6SM BKN015 OVC060
      TEMPO 2511/2515 OVC008
     FM251500 29006KT 6SM -SHRA OVC013=

USA.gov is the U.S. government's official web portal to all federal, state and local government web resources and services.